Time;durP1;ratioP1;P1;durP2;ratioP2;P2;SDS_P1;SDS_P2;PMS_P1;PMS_P2;Temp;Humidity;BMP_temperature;BMP_pressure;BME280_temperature;BME280_humidity;BME280_pressure;Samples;Min_cycle;Max_cycle;Signal;HPM_P1;HPM_P2
2022/11/11 00:10:52;;;;;;;145.50;46.73;;;;;;;;;;1286014;108;21315;-90
2022/11/11 00:29:37;;;;;;;147.85;47.60;;;;;;;;;;1211938;116;21246;-94
2022/11/11 00:32:29;;;;;;;140.62;46.50;;;;;;;;;;1225107;115;21172;-90
2022/11/11 00:40:16;;;;;;;133.45;44.63;;;;;;;;;;1236304;114;21340;-89
2022/11/11 00:42:42;;;;;;;132.82;43.28;;;;;;;;;;1229182;116;21753;-90
2022/11/11 00:45:09;;;;;;;135.75;43.68;;;;;;;;;;1205280;117;21290;-90
2022/11/11 00:53:11;;;;;;;146.87;46.25;;;;;;;;;;1182566;119;21142;-90
2022/11/11 00:55:42;;;;;;;146.53;47.38;;;;;;;;;;1182793;121;21381;-89
2022/11/11 00:58:21;;;;;;;;;;;;;;;;;;;;;
2022/11/11 01:00:45;;;;;;;164.52;48.55;;;;;;;;;;1195687;118;21162;-90
2022/11/11 01:03:36;;;;;;;161.92;48.20;;;;;;;;;;1181185;121;21484;-90
2022/11/11 01:09:25;;;;;;;143.75;43.17;;;;;;;;;;1192405;120;21751;-89
2022/11/11 01:12:10;;;;;;;;;;;;;;;;;;;;;
2022/11/11 01:14:52;;;;;;;130.32;42.88;;;;;;;;;;1202165;118;21444;-91
2022/11/11 01:20:37;;;;;;;134.55;45.40;;;;;;;;;;1174452;121;21298;-89
2022/11/11 01:23:15;;;;;;;131.25;42.13;;;;;;;;;;;;;
2022/11/11 01:29:45;;;;;;;;;;;;;;;;;;;;;
2022/11/11 01:53:37;;;;;;;;;;;;;;;;;;;;;
2022/11/11 01:59:33;;;;;;;;;;;;;;;;;;;;;
2022/11/11 02:17:28;;;;;;;110.40;38.00;;;;;;;;;;1244694;114;21395;-88
2022/11/11 02:27:22;;;;;;;;;;;;;;;;;;;;;
2022/11/11 02:36:09;;;;;;;;;;;;;;;;;;;;;
2022/11/11 02:59:16;;;;;;;;;;;;;;;;;;;;;
2022/11/11 03:11:37;;;;;;;111.25;39.20;;;;;;;;;;1281498;110;21838;-89
2022/11/11 03:14:14;;;;;;;106.70;36.70;;;;;;;;;;1281815;110;21194;-89
2022/11/11 03:22:20;;;;;;;100.58;36.83;;;;;;;;;;1292363;110;21272;-88
2022/11/11 03:27:40;;;;;;;142.07;44.67;;;;;;;;;;1292501;108;21253;-89
2022/11/11 03:30:19;;;;;;;125.05;42.23;;;;;;;;;;1282648;110;21703;-89
2022/11/11 03:33:04;;;;;;;113.10;40.28;;;;;;;;;;1291577;107;21264;-88
2022/11/11 03:43:07;;;;;;;146.15;48.65;;;;;;;;;;1284625;111;21242;-88
2022/11/11 03:45:43;;;;;;;145.65;48.52;;;;;;;;;;1304757;109;21610;-88
2022/11/11 03:48:10;;;;;;;137.75;46.00;;;;;;;;;;1300881;108;21206;-88
2022/11/11 03:50:41;;;;;;;130.95;44.90;;;;;;;;;;1280541;112;21307;-92
2022/11/11 03:53:12;;;;;;;144.53;45.83;;;;;;;;;;1283430;111;21182;-88
2022/11/11 03:55:47;;;;;;;136.15;43.40;;;;;;;;;;1291802;108;21184;-88
2022/11/11 03:58:47;;;;;;;131.95;44.58;;;;;;;;;;1259127;113;21242;-88
2022/11/11 04:10:56;;;;;;;145.47;50.78;;;;;;;;;;1184648;119;21274;-89
2022/11/11 04:16:12;;;;;;;144.30;47.55;;;;;;;;;;1177698;121;21305;-89
2022/11/11 04:26:56;;;;;;;144.55;47.93;;;;;;;;;;1137039;125;21805;-89
2022/11/11 04:29:28;;;;;;;151.20;48.48;;;;;;;;;;1144874;124;21331;-89
2022/11/11 04:34:46;;;;;;;143.72;48.85;;;;;;;;;;1164667;117;21324;-89
2022/11/11 04:37:12;;;;;;;160.60;53.28;;;;;;;;;;1228554;116;21271;-89
2022/11/11 04:42:22;;;;;;;144.47;49.00;;;;;;;;;;1261427;110;21777;-90
2022/11/11 04:47:32;;;;;;;159.65;50.50;;;;;;;;;;1331124;103;21688;-89
2022/11/11 04:49:58;;;;;;;153.35;50.17;;;;;;;;;;1344160;105;21184;-90
2022/11/11 04:52:30;;;;;;;155.72;52.33;;;;;;;;;;1394080;97;21146;-89
2022/11/11 04:57:47;;;;;;;158.87;52.27;;;;;;;;;;1555589;91;22331;-88
2022/11/11 05:00:15;;;;;;;158.78;52.70;;;;;;;;;;1573245;91;21053;-88
2022/11/11 05:05:26;;;;;;;166.85;54.53;;;;;;;;;;1572716;90;21112;-91
2022/11/11 05:10:37;;;;;;;166.80;51.77;;;;;;;;;;1672079;84;21050;-89
2022/11/11 05:21:21;;;;;;;181.45;57.13;;;;;;;;;;1672007;85;21102;-88
2022/11/11 05:26:32;;;;;;;171.35;52.88;;;;;;;;;;1671995;85;21042;-89
2022/11/11 05:28:58;;;;;;;163.82;50.70;;;;;;;;;;1672108;85;21114;-89
2022/11/11 05:31:24;;;;;;;155.52;47.38;;;;;;;;;;1672352;84;21081;-89
2022/11/11 05:33:50;;;;;;;144.02;44.90;;;;;;;;;;1672162;85;20878;-89
2022/11/11 05:36:16;;;;;;;134.18;43.92;;;;;;;;;;1672134;85;20882;-90
2022/11/11 05:38:42;;;;;;;123.62;42.98;;;;;;;;;;1672094;85;21057;-90
2022/11/11 05:41:08;;;;;;;123.10;40.70;;;;;;;;;;1671801;85;21518;-92
2022/11/11 05:43:34;;;;;;;121.60;41.28;;;;;;;;;;1707556;82;20900;-90
2022/11/11 05:46:00;;;;;;;184.95;55.65;;;;;;;;;;1704911;84;21729;-90
2022/11/11 05:50:53;;;;;;;113.00;41.40;;;;;;;;;;1661641;85;21052;-92
2022/11/11 05:53:22;;;;;;;118.60;40.83;;;;;;;;;;1660688;85;21705;-92
2022/11/11 05:55:49;;;;;;;94.47;37.28;;;;;;;;;;1659799;85;21182;-91
2022/11/11 05:58:17;;;;;;;127.07;44.45;;;;;;;;;;1660573;85;21453;-91
2022/11/11 06:00:43;;;;;;;119.00;42.53;;;;;;;;;;1660284;85;21592;-92
2022/11/11 06:03:09;;;;;;;94.32;37.98;;;;;;;;;;1676164;84;20912;-93
2022/11/11 06:05:40;;;;;;;96.65;38.58;;;;;;;;;;1671109;84;21673;-93
2022/11/11 06:08:06;;;;;;;106.20;40.67;;;;;;;;;;1671093;84;21100;-93
2022/11/11 06:10:32;;;;;;;111.97;40.52;;;;;;;;;;1693946;84;20896;-94
2022/11/11 06:13:03;;;;;;;109.32;41.40;;;;;;;;;;1694755;83;20872;-93
2022/11/11 06:15:29;;;;;;;102.05;39.25;;;;;;;;;;1694033;82;21094;-92
2022/11/11 06:17:55;;;;;;;109.37;40.25;;;;;;;;;;1671467;84;22311;-93
2022/11/11 06:20:21;;;;;;;103.78;40.43;;;;;;;;;;1694814;84;20864;-94
2022/11/11 06:22:56;;;;;;;121.70;43.52;;;;;;;;;;1694913;84;20892;-94
2022/11/11 06:28:11;;;;;;;128.68;48.30;;;;;;;;;;1674939;84;21074;-94
2022/11/11 06:30:37;;;;;;;157.67;60.25;;;;;;;;;;1694436;84;21713;-96
2022/11/11 06:33:03;;;;;;;148.25;57.20;;;;;;;;;;1694096;84;21097;-95
2022/11/11 06:35:31;;;;;;;114.75;44.88;;;;;;;;;;1693245;83;21062;-94
2022/11/11 06:37:57;;;;;;;117.53;41.50;;;;;;;;;;1693478;82;21546;-95
2022/11/11 06:40:23;;;;;;;103.10;39.98;;;;;;;;;;1696791;81;20965;-95
2022/11/11 06:42:49;;;;;;;99.35;36.83;;;;;;;;;;1756345;80;21913;-95
2022/11/11 06:45:15;;;;;;;91.35;33.55;;;;;;;;;;1755974;81;20948;-95
2022/11/11 06:47:56;;;;;;;90.20;33.35;;;;;;;;;;1756949;81;21800;-95
2022/11/11 06:50:22;;;;;;;88.33;32.70;;;;;;;;;;1757882;81;21052;-95
2022/11/11 06:52:48;;;;;;;78.55;31.40;;;;;;;;;;1756880;81;20941;-93
2022/11/11 06:55:13;;;;;;;85.65;32.05;;;;;;;;;;1757006;81;20971;-95
2022/11/11 07:02:55;;;;;;;78.65;28.57;;;;;;;;;;1573868;90;21081;-96
2022/11/11 07:07:50;;;;;;;75.75;30.43;;;;;;;;;;1480560;95;21204;-96
2022/11/11 07:10:18;;;;;;;81.53;30.12;;;;;;;;;;1479812;95;21036;-96
2022/11/11 07:12:45;;;;;;;80.83;30.35;;;;;;;;;;1504981;94;21072;-93
2022/11/11 07:15:11;;;;;;;93.30;32.42;;;;;;;;;;1475535;95;21611;-96
2022/11/11 07:17:37;;;;;;;74.15;27.85;;;;;;;;;;1475137;95;21153;-96
2022/11/11 07:20:07;;;;;;;74.50;29.40;;;;;;;;;;1475683;97;21298;-95
2022/11/11 07:22:35;;;;;;;73.15;27.52;;;;;;;;;;1468839;96;21162;-95
2022/11/11 07:25:19;;;;;;;;;;;;;;;;;;;;;
2022/11/11 07:30:45;;;;;;;;;;;;;;;;;;;;;
2022/11/11 07:43:43;;;;;;;;;;;;;;;;;;;;;
2022/11/11 07:57:49;;;;;;;;;;;;;;;;;;;;;
2022/11/11 08:03:50;;;;;;;65.50;26.35;;;;;;;;;;1230076;113;21292;-94
2022/11/11 08:08:48;;;;;;;39.23;16.30;;;;;;;;;;1267852;112;21528;-95
2022/11/11 08:11:15;;;;;;;42.67;15.95;;;;;;;;;;1269067;111;21181;-94
2022/11/11 08:13:42;;;;;;;37.42;15.78;;;;;;;;;;1284215;110;21768;-95
2022/11/11 08:16:13;;;;;;;60.43;22.90;;;;;;;;;;1296258;110;21227;-94
2022/11/11 08:18:39;;;;;;;103.12;39.35;;;;;;;;;;1317220;103;21167;-94
2022/11/11 08:21:08;;;;;;;71.33;27.45;;;;;;;;;;1385261;102;21443;-92
2022/11/11 08:23:37;;;;;;;55.25;20.60;;;;;;;;;;1422638;99;21647;-93
2022/11/11 08:26:04;;;;;;;74.20;26.30;;;;;;;;;;1422128;99;21182;-95
2022/11/11 08:28:31;;;;;;;50.33;19.25;;;;;;;;;;1422901;99;21220;-92
2022/11/11 08:30:58;;;;;;;55.38;18.10;;;;;;;;;;1475123;94;22218;-94
2022/11/11 08:33:25;;;;;;;58.75;20.35;;;;;;;;;;1587720;86;21176;-91
2022/11/11 08:35:54;;;;;;;53.25;17.70;;;;;;;;;;1625082;88;21187;-94
2022/11/11 08:38:21;;;;;;;58.33;18.85;;;;;;;;;;1621630;88;21061;-91
2022/11/11 08:40:46;;;;;;;54.67;19.20;;;;;;;;;;1625562;87;21169;-94
2022/11/11 08:43:16;;;;;;;70.55;22.07;;;;;;;;;;1639886;84;20994;-93
2022/11/11 08:45:42;;;;;;;67.72;23.25;;;;;;;;;;1655962;86;21108;-92
2022/11/11 08:48:11;;;;;;;78.35;23.45;;;;;;;;;;1634729;86;21094;-92
2022/11/11 08:50:39;;;;;;;73.25;22.42;;;;;;;;;;1656652;86;21491;-91
2022/11/11 08:53:07;;;;;;;96.50;25.88;;;;;;;;;;1641098;87;21491;-93
2022/11/11 08:55:34;;;;;;;74.07;22.40;;;;;;;;;;1640638;87;21114;-91
2022/11/11 08:58:05;;;;;;;58.75;18.75;;;;;;;;;;1640698;87;21185;-94
2022/11/11 09:00:31;;;;;;;59.88;20.08;;;;;;;;;;1640409;87;21590;-90
2022/11/11 09:05:32;;;;;;;52.08;18.00;;;;;;;;;;1614279;86;21083;-90
2022/11/11 09:08:01;;;;;;;55.63;19.23;;;;;;;;;;1656989;86;21548;-91
2022/11/11 09:10:27;;;;;;;57.78;19.17;;;;;;;;;;1657212;86;21114;-91
2022/11/11 09:12:57;;;;;;;52.95;20.35;;;;;;;;;;1656827;86;20983;-91
2022/11/11 09:15:23;;;;;;;88.10;26.82;;;;;;;;;;1657068;86;21039;-90
2022/11/11 09:17:49;;;;;;;64.20;21.62;;;;;;;;;;1656923;86;20940;-91
2022/11/11 09:20:15;;;;;;;65.37;22.25;;;;;;;;;;1657036;86;20920;-91
2022/11/11 09:22:45;;;;;;;54.03;18.70;;;;;;;;;;1656944;86;21075;-90
2022/11/11 09:25:11;;;;;;;59.30;18.17;;;;;;;;;;1634373;86;21059;-91
2022/11/11 09:27:37;;;;;;;49.20;17.60;;;;;;;;;;1657089;86;20900;-91
2022/11/11 09:30:03;;;;;;;36.98;15.10;;;;;;;;;;1656866;86;21579;-90
2022/11/11 09:32:29;;;;;;;48.20;19.00;;;;;;;;;;1657180;86;21523;-91
2022/11/11 09:34:55;;;;;;;38.83;15.70;;;;;;;;;;1657217;86;21111;-90
2022/11/11 09:37:29;;;;;;;50.80;17.90;;;;;;;;;;1657282;86;20940;-90
2022/11/11 09:39:56;;;;;;;40.48;16.52;;;;;;;;;;1597624;88;21125;-90
2022/11/11 09:42:34;;;;;;;37.08;15.38;;;;;;;;;;1577770;89;21121;-91
2022/11/11 09:45:22;;;;;;;41.25;15.30;;;;;;;;;;1592853;89;21109;-90
2022/11/11 09:48:03;;;;;;;43.92;17.27;;;;;;;;;;1596015;89;21115;-91
2022/11/11 09:50:31;;;;;;;41.53;16.30;;;;;;;;;;1582869;89;21165;-91
2022/11/11 09:53:05;;;;;;;44.35;16.45;;;;;;;;;;1549985;91;21598;-90
2022/11/11 09:55:37;;;;;;;40.38;15.85;;;;;;;;;;1546838;91;21107;-90
2022/11/11 09:58:13;;;;;;;41.98;16.12;;;;;;;;;;1549908;91;21134;-91
2022/11/11 10:00:41;;;;;;;38.73;14.13;;;;;;;;;;1524146;92;21232;-91
2022/11/11 10:03:10;;;;;;;36.98;15.03;;;;;;;;;;1628074;85;21088;-90
2022/11/11 10:05:58;;;;;;;38.23;14.83;;;;;;;;;;1663694;86;21230;-90
2022/11/11 10:08:33;;;;;;;36.17;14.47;;;;;;;;;;1607583;87;21132;-92
2022/11/11 10:10:59;;;;;;;44.50;16.35;;;;;;;;;;1588246;90;21113;-93
2022/11/11 10:13:30;;;;;;;44.63;16.42;;;;;;;;;;1571672;90;21078;-93
2022/11/11 10:16:16;;;;;;;43.35;17.25;;;;;;;;;;1592210;90;21628;-93
2022/11/11 10:19:01;;;;;;;40.20;14.80;;;;;;;;;;1591492;90;21685;-92
2022/11/11 10:21:39;;;;;;;47.30;17.40;;;;;;;;;;1591410;90;21152;-93
2022/11/11 10:24:09;;;;;;;44.50;18.40;;;;;;;;;;1591466;88;21017;-93
2022/11/11 10:26:39;;;;;;;41.90;15.58;;;;;;;;;;1590064;90;21128;-92
2022/11/11 10:29:15;;;;;;;36.42;15.75;;;;;;;;;;1592185;90;21088;-93
2022/11/11 10:31:41;;;;;;;33.33;13.93;;;;;;;;;;1587866;90;21111;-92
2022/11/11 10:34:12;;;;;;;34.85;13.55;;;;;;;;;;1590573;90;21116;-93
2022/11/11 10:36:47;;;;;;;38.73;15.90;;;;;;;;;;1615514;86;21016;-93
2022/11/11 10:39:15;;;;;;;39.35;15.15;;;;;;;;;;1659684;86;21072;-93
2022/11/11 10:41:45;;;;;;;34.33;13.72;;;;;;;;;;1657442;86;21524;-92
2022/11/11 10:44:23;;;;;;;39.73;15.00;;;;;;;;;;1587534;89;21279;-94
2022/11/11 10:47:18;;;;;;;30.90;13.28;;;;;;;;;;1557605;91;21095;-94
2022/11/11 10:49:47;;;;;;;35.68;14.33;;;;;;;;;;1607107;87;21048;-93
2022/11/11 10:52:17;;;;;;;35.35;14.05;;;;;;;;;;1503504;94;21135;-88
2022/11/11 10:54:46;;;;;;;38.67;15.55;;;;;;;;;;1502857;95;21091;-93
2022/11/11 10:57:22;;;;;;;34.03;13.65;;;;;;;;;;1480181;96;21161;-92
2022/11/11 11:00:07;;;;;;;31.15;13.35;;;;;;;;;;1480101;96;21245;-92
2022/11/11 11:02:40;;;;;;;34.88;13.65;;;;;;;;;;1480405;96;21157;-88
2022/11/11 11:05:09;;;;;;;40.10;16.05;;;;;;;;;;1481312;96;21094;-89
2022/11/11 11:07:40;;;;;;;36.80;14.07;;;;;;;;;;1481388;96;21019;-89
2022/11/11 11:10:15;;;;;;;41.60;14.43;;;;;;;;;;1458397;98;21109;-90
2022/11/11 11:13:01;;;;;;;43.28;14.35;;;;;;;;;;1458486;98;21140;-88
2022/11/11 11:15:28;;;;;;;32.17;13.30;;;;;;;;;;1458586;97;21272;-93
2022/11/11 11:18:09;;;;;;;36.63;14.15;;;;;;;;;;1458867;96;22040;-91
2022/11/11 11:20:35;;;;;;;31.35;12.68;;;;;;;;;;1458871;97;21256;-89
2022/11/11 11:23:01;;;;;;;32.05;13.28;;;;;;;;;;1460556;97;21001;-90
2022/11/11 11:25:29;;;;;;;39.90;16.00;;;;;;;;;;1440395;98;21720;-91
2022/11/11 11:28:09;;;;;;;32.67;13.08;;;;;;;;;;1441352;99;21626;-92
2022/11/11 11:30:35;;;;;;;33.38;13.75;;;;;;;;;;1438800;98;21439;-92
2022/11/11 11:33:03;;;;;;;37.98;14.47;;;;;;;;;;1428263;97;21023;-92
2022/11/11 11:35:35;;;;;;;34.13;13.08;;;;;;;;;;1451286;96;21209;-93
2022/11/11 11:38:02;;;;;;;34.65;12.98;;;;;;;;;;1462917;95;21258;-92
2022/11/11 11:40:46;;;;;;;33.13;13.75;;;;;;;;;;1465714;96;21192;-94
2022/11/11 11:43:24;;;;;;;38.25;12.73;;;;;;;;;;1466705;96;21494;-92
2022/11/11 11:45:58;;;;;;;37.88;14.73;;;;;;;;;;1444692;96;21613;-95
2022/11/11 11:48:42;;;;;;;30.37;12.05;;;;;;;;;;1606820;82;21085;-91
2022/11/11 11:51:17;;;;;;;37.17;13.22;;;;;;;;;;1737053;82;21024;-91
2022/11/11 11:53:58;;;;;;;29.72;12.25;;;;;;;;;;1737002;82;21078;-90
2022/11/11 11:56:43;;;;;;;39.03;13.85;;;;;;;;;;1737051;82;21798;-91
2022/11/11 11:59:27;;;;;;;37.90;14.03;;;;;;;;;;1736727;82;21078;-93
2022/11/11 12:02:15;;;;;;;33.83;13.10;;;;;;;;;;1734310;82;21059;-90
2022/11/11 12:04:51;;;;;;;35.15;13.98;;;;;;;;;;1717399;82;21577;-94
2022/11/11 12:07:43;;;;;;;35.68;13.95;;;;;;;;;;1664332;85;21155;-93
2022/11/11 12:10:35;;;;;;;35.33;12.68;;;;;;;;;;1623735;87;21218;-94
2022/11/11 12:21:51;;;;;;;35.75;13.55;;;;;;;;;;1388219;101;21262;-89
2022/11/11 12:24:39;;;;;;;40.63;14.55;;;;;;;;;;1406244;101;21283;-95
2022/11/11 12:27:11;;;;;;;37.30;14.10;;;;;;;;;;1410651;100;21470;-91
2022/11/11 12:29:41;;;;;;;41.97;14.17;;;;;;;;;;1410641;100;21101;-90
2022/11/11 12:32:19;;;;;;;35.43;13.32;;;;;;;;;;1410865;101;21136;-89
2022/11/11 12:35:09;;;;;;;49.45;16.97;;;;;;;;;;1410380;101;21113;-89
2022/11/11 12:37:45;;;;;;;70.90;22.62;;;;;;;;;;1381357;102;21238;-89
2022/11/11 12:40:17;;;;;;;56.92;20.40;;;;;;;;;;1376471;102;21821;-89
2022/11/11 12:42:58;;;;;;;58.85;19.27;;;;;;;;;;1385392;102;21198;-90
2022/11/11 12:45:27;;;;;;;52.73;19.52;;;;;;;;;;1377538;102;21111;-90
2022/11/11 12:47:59;;;;;;;47.13;17.48;;;;;;;;;;1425684;99;21515;-89
2022/11/11 12:50:40;;;;;;;48.40;15.88;;;;;;;;;;1434175;99;21160;-90
2022/11/11 12:53:16;;;;;;;49.53;16.32;;;;;;;;;;1349623;106;21125;-90
2022/11/11 12:55:51;;;;;;;49.55;17.90;;;;;;;;;;1335512;106;21217;-90
2022/11/11 12:58:23;;;;;;;38.45;15.45;;;;;;;;;;1293980;109;21175;-90
2022/11/11 13:00:58;;;;;;;60.50;24.02;;;;;;;;;;1316717;107;21146;-89
2022/11/11 13:03:53;;;;;;;54.90;20.32;;;;;;;;;;1315215;107;22071;-90
2022/11/11 13:06:28;;;;;;;74.35;29.40;;;;;;;;;;1316963;107;21670;-91
2022/11/11 13:09:01;;;;;;;48.78;17.60;;;;;;;;;;1288549;109;21752;-90
2022/11/11 13:11:52;;;;;;;60.80;22.98;;;;;;;;;;1265880;111;21251;-93
2022/11/11 13:14:40;;;;;;;53.80;19.80;;;;;;;;;;1288384;110;21168;-90
2022/11/11 13:17:11;;;;;;;64.70;22.95;;;;;;;;;;1343891;105;21283;-89
2022/11/11 13:19:55;;;;;;;56.13;21.62;;;;;;;;;;1342540;106;21129;-92
2022/11/11 13:22:27;;;;;;;66.35;25.88;;;;;;;;;;1344023;106;21671;-89
2022/11/11 13:24:56;;;;;;;69.53;25.02;;;;;;;;;;1315519;107;21215;-89
2022/11/11 13:27:41;;;;;;;60.55;22.75;;;;;;;;;;1365356;104;21204;-90
2022/11/11 13:30:33;;;;;;;62.53;22.25;;;;;;;;;;1398372;101;21760;-90
2022/11/11 13:33:10;;;;;;;52.60;19.85;;;;;;;;;;1416309;100;21165;-90
2022/11/11 13:35:42;;;;;;;56.68;22.07;;;;;;;;;;1416650;101;22448;-90
2022/11/11 13:38:14;;;;;;;52.73;19.62;;;;;;;;;;1416508;101;21191;-91
2022/11/11 13:40:42;;;;;;;52.05;18.90;;;;;;;;;;1412358;101;21232;-88
2022/11/11 13:43:21;;;;;;;48.20;18.32;;;;;;;;;;1416477;101;21248;-91
2022/11/11 13:45:51;;;;;;;57.15;21.25;;;;;;;;;;1454813;95;21156;-89
2022/11/11 13:48:29;;;;;;;55.20;20.52;;;;;;;;;;1506054;95;21735;-90
2022/11/11 13:51:13;;;;;;;52.20;19.65;;;;;;;;;;1526071;93;20978;-90
2022/11/11 13:53:40;;;;;;;49.03;16.85;;;;;;;;;;1470816;95;21147;-89
2022/11/11 13:56:08;;;;;;;55.80;18.23;;;;;;;;;;1489751;96;21805;-90
2022/11/11 13:58:36;;;;;;;51.77;19.40;;;;;;;;;;1489894;96;21087;-89
2022/11/11 14:01:04;;;;;;;58.60;19.77;;;;;;;;;;1424679;99;21566;-90
2022/11/11 14:03:36;;;;;;;48.63;18.30;;;;;;;;;;1424176;98;21810;-89
2022/11/11 14:06:14;;;;;;;51.13;18.62;;;;;;;;;;1424291;99;21153;-91
2022/11/11 14:08:50;;;;;;;46.02;17.62;;;;;;;;;;1391324;102;21717;-90
2022/11/11 14:11:31;;;;;;;47.85;17.00;;;;;;;;;;1390772;102;21230;-90
2022/11/11 14:14:00;;;;;;;51.30;17.45;;;;;;;;;;1391136;102;21275;-91
2022/11/11 14:16:39;;;;;;;50.98;18.02;;;;;;;;;;1388893;102;21153;-91
2022/11/11 14:19:23;;;;;;;45.88;16.57;;;;;;;;;;1390840;102;21170;-90
2022/11/11 14:21:57;;;;;;;55.30;18.90;;;;;;;;;;1424196;98;21197;-90
2022/11/11 14:24:38;;;;;;;60.00;22.15;;;;;;;;;;1459344;97;21235;-90
2022/11/11 14:27:10;;;;;;;65.03;21.77;;;;;;;;;;1466939;92;21078;-90
2022/11/11 14:29:51;;;;;;;61.07;22.27;;;;;;;;;;1537549;92;21100;-90
2022/11/11 14:32:38;;;;;;;59.10;20.40;;;;;;;;;;1546163;92;21087;-90
2022/11/11 14:35:13;;;;;;;58.78;21.65;;;;;;;;;;1546663;92;22015;-90
2022/11/11 14:37:45;;;;;;;60.00;22.20;;;;;;;;;;1544968;92;21172;-90
2022/11/11 14:40:15;;;;;;;66.17;24.98;;;;;;;;;;1546628;92;21174;-90
2022/11/11 14:42:43;;;;;;;81.47;26.37;;;;;;;;;;1543648;92;21080;-91
2022/11/11 14:45:29;;;;;;;95.60;30.57;;;;;;;;;;1549290;90;21169;-90
2022/11/11 14:47:58;;;;;;;85.53;29.67;;;;;;;;;;1576006;90;21116;-90
2022/11/11 14:50:36;;;;;;;104.00;33.80;;;;;;;;;;1530946;93;21059;-91
2022/11/11 14:53:19;;;;;;;105.05;36.20;;;;;;;;;;1530717;93;21117;-91
2022/11/11 14:55:47;;;;;;;;;;;;;;;;;;1532829;93;21136;-91
2022/11/11 14:58:16;;;;;;;86.75;28.95;;;;;;;;;;1537171;91;20195;-90
2022/11/11 15:01:07;;;;;;;80.85;28.60;;;;;;;;;;1545497;91;21159;-91
2022/11/11 15:03:39;;;;;;;93.45;29.63;;;;;;;;;;1545850;91;21624;-89
2022/11/11 15:06:12;;;;;;;87.15;28.45;;;;;;;;;;1545874;91;21483;-91
2022/11/11 15:08:41;;;;;;;91.55;30.85;;;;;;;;;;1546198;91;21113;-90
2022/11/11 15:11:19;;;;;;;87.17;27.25;;;;;;;;;;1543013;90;21156;-91
2022/11/11 15:13:57;;;;;;;86.30;26.57;;;;;;;;;;1546014;91;21249;-91
2022/11/11 15:16:35;;;;;;;86.63;27.45;;;;;;;;;;1545914;91;21142;-91
2022/11/11 15:19:29;;;;;;;92.60;30.08;;;;;;;;;;1546049;91;21040;-91
2022/11/11 15:22:17;;;;;;;89.32;30.50;;;;;;;;;;1546219;91;21165;-92
2022/11/11 15:24:58;;;;;;;82.85;28.02;;;;;;;;;;1549466;91;21041;-93
2022/11/11 15:27:39;;;;;;;84.47;26.80;;;;;;;;;;1550694;92;21932;-92
2022/11/11 15:30:16;;;;;;;82.15;28.02;;;;;;;;;;1550409;92;21266;-92
2022/11/11 15:32:54;;;;;;;85.45;28.10;;;;;;;;;;1550696;92;21076;-92
2022/11/11 15:35:42;;;;;;;96.47;28.23;;;;;;;;;;1591371;88;21093;-92
2022/11/11 15:38:11;;;;;;;91.67;28.67;;;;;;;;;;1625574;87;21155;-92
2022/11/11 15:40:47;;;;;;;78.60;26.75;;;;;;;;;;1625956;88;21088;-92
2022/11/11 15:43:22;;;;;;;90.30;28.02;;;;;;;;;;1625481;87;21574;-92
2022/11/11 15:45:53;;;;;;;87.60;28.83;;;;;;;;;;1597653;88;21562;-89
2022/11/11 15:48:21;;;;;;;80.87;25.72;;;;;;;;;;1624875;86;21025;-90
2022/11/11 15:50:47;;;;;;;75.45;25.75;;;;;;;;;;1596222;88;21144;-90
2022/11/11 15:53:14;;;;;;;90.50;28.15;;;;;;;;;;1596288;88;21014;-90
2022/11/11 15:55:40;;;;;;;88.45;28.50;;;;;;;;;;1595906;88;20989;-90
2022/11/11 15:58:12;;;;;;;93.30;27.85;;;;;;;;;;1596299;88;21033;-90
2022/11/11 16:00:38;;;;;;;77.95;27.55;;;;;;;;;;1596396;88;21091;-90
2022/11/11 16:03:04;;;;;;;86.40;27.25;;;;;;;;;;1596185;88;20921;-89
2022/11/11 16:05:31;;;;;;;78.02;25.45;;;;;;;;;;1596001;88;21718;-89
2022/11/11 16:08:07;;;;;;;80.05;26.23;;;;;;;;;;1595917;88;20969;-90
2022/11/11 16:10:35;;;;;;;76.92;24.50;;;;;;;;;;1595450;88;21174;-90
2022/11/11 16:13:05;;;;;;;76.53;24.90;;;;;;;;;;1595900;88;21254;-90
2022/11/11 16:15:40;;;;;;;77.75;24.55;;;;;;;;;;1596066;88;21132;-88
2022/11/11 16:18:12;;;;;;;79.30;25.90;;;;;;;;;;1596099;88;21178;-90
2022/11/11 16:20:41;;;;;;;76.02;24.45;;;;;;;;;;1595877;88;21124;-90
2022/11/11 16:23:08;;;;;;;67.47;23.52;;;;;;;;;;1576677;90;21128;-91
2022/11/11 16:25:33;;;;;;;74.77;25.00;;;;;;;;;;1576744;91;21112;-92
2022/11/11 16:28:00;;;;;;;80.17;24.85;;;;;;;;;;1576786;91;20902;-89
2022/11/11 16:30:34;;;;;;;77.70;25.40;;;;;;;;;;1576513;89;21164;-89
2022/11/11 16:33:00;;;;;;;83.50;26.68;;;;;;;;;;1605647;88;21066;-91
2022/11/11 16:35:35;;;;;;;95.25;29.18;;;;;;;;;;1603455;88;21072;-89
2022/11/11 16:38:02;;;;;;;99.28;28.92;;;;;;;;;;1602999;88;21345;-89
2022/11/11 16:40:35;;;;;;;132.95;36.58;;;;;;;;;;1602978;89;21029;-87
2022/11/11 16:43:22;;;;;;;108.85;29.05;;;;;;;;;;1603212;89;21093;-90
2022/11/11 16:46:05;;;;;;;108.83;32.03;;;;;;;;;;1597269;88;21105;-90
2022/11/11 16:48:38;;;;;;;131.03;36.03;;;;;;;;;;1595758;88;28278;-90
2022/11/11 16:51:05;;;;;;;;;;;;;;;;;;1598125;88;21102;-90
2022/11/11 16:53:33;;;;;;;95.15;28.42;;;;;;;;;;1613674;85;20215;-91
2022/11/11 16:56:05;;;;;;;109.27;30.85;;;;;;;;;;1669449;85;21198;-90
2022/11/11 16:58:30;;;;;;;114.92;32.35;;;;;;;;;;1562779;91;21161;-89
2022/11/11 17:01:03;;;;;;;111.08;32.95;;;;;;;;;;1563430;91;21181;-90
2022/11/11 17:03:29;;;;;;;116.45;34.43;;;;;;;;;;1562840;90;21149;-90
2022/11/11 17:05:57;;;;;;;106.00;32.08;;;;;;;;;;1559861;90;21141;-91
2022/11/11 17:08:33;;;;;;;111.45;32.13;;;;;;;;;;1543268;91;21225;-90
2022/11/11 17:10:59;;;;;;;114.15;32.35;;;;;;;;;;1563106;90;21145;-92
2022/11/11 17:15:54;;;;;;;113.25;33.28;;;;;;;;;;1504336;93;21109;-91
2022/11/11 17:18:26;;;;;;;102.10;31.23;;;;;;;;;;1501436;94;21568;-91
2022/11/11 17:20:58;;;;;;;116.65;36.15;;;;;;;;;;1525350;92;21301;-91
2022/11/11 17:23:27;;;;;;;116.75;35.63;;;;;;;;;;1527859;92;21069;-90
2022/11/11 17:25:59;;;;;;;116.35;34.80;;;;;;;;;;1528505;92;21185;-91
2022/11/11 17:28:26;;;;;;;115.90;33.60;;;;;;;;;;1528838;92;21149;-91
2022/11/11 17:30:52;;;;;;;107.90;33.35;;;;;;;;;;1528864;92;21832;-91
2022/11/11 17:33:18;;;;;;;107.25;33.53;;;;;;;;;;1509712;92;21953;-91
2022/11/11 17:35:50;;;;;;;107.03;32.73;;;;;;;;;;1528667;92;21002;-91
2022/11/11 17:38:16;;;;;;;118.65;34.67;;;;;;;;;;1528684;92;21577;-90
2022/11/11 17:40:46;;;;;;;107.32;33.28;;;;;;;;;;1525699;92;21699;-91
2022/11/11 17:43:11;;;;;;;106.72;33.60;;;;;;;;;;1509748;92;21189;-91
2022/11/11 17:45:54;;;;;;;104.27;33.45;;;;;;;;;;1543938;91;21129;-91
2022/11/11 17:54:27;;;;;;;;;;;;;;;;;;;;;
2022/11/11 18:09:35;;;;;;;113.03;34.23;;;;;;;;;;1418524;99;21034;-90
2022/11/11 18:13:01;;;;;;;;;;;;;;;;;;;;;
2022/11/11 18:21:51;;;;;;;100.58;33.73;;;;;;;;;;1388866;103;21214;-90
2022/11/11 18:24:17;;;;;;;102.47;32.80;;;;;;;;;;1424881;99;21697;-91
2022/11/11 18:26:42;;;;;;;98.78;33.42;;;;;;;;;;1422735;99;20996;-91
2022/11/11 18:29:09;;;;;;;102.60;33.25;;;;;;;;;;1477768;94;21671;-91
2022/11/11 18:31:35;;;;;;;101.00;32.17;;;;;;;;;;1550947;90;21084;-91
2022/11/11 18:34:02;;;;;;;105.35;33.53;;;;;;;;;;1566402;90;21129;-91
2022/11/11 18:36:27;;;;;;;104.83;32.98;;;;;;;;;;1581299;89;21131;-91
2022/11/11 18:38:54;;;;;;;108.32;31.50;;;;;;;;;;1581400;90;21030;-90
2022/11/11 18:41:21;;;;;;;100.75;32.42;;;;;;;;;;1581459;90;21100;-91
2022/11/11 18:43:48;;;;;;;106.83;33.78;;;;;;;;;;1581168;90;21165;-91
2022/11/11 18:46:17;;;;;;;100.60;32.45;;;;;;;;;;1579429;90;21061;-91
2022/11/11 18:48:43;;;;;;;98.00;29.90;;;;;;;;;;1597791;86;21130;-91
2022/11/11 18:51:11;;;;;;;104.55;32.63;;;;;;;;;;1655715;85;21614;-91
2022/11/11 18:53:38;;;;;;;108.87;32.42;;;;;;;;;;1655889;85;21813;-91
2022/11/11 18:56:09;;;;;;;108.63;32.45;;;;;;;;;;1655286;86;21528;-90
2022/11/11 18:58:35;;;;;;;98.03;31.93;;;;;;;;;;1655151;85;21620;-90
2022/11/11 19:01:06;;;;;;;94.62;30.20;;;;;;;;;;1655428;85;21054;-91
2022/11/11 19:03:32;;;;;;;133.50;38.85;;;;;;;;;;1656041;85;21118;-91
2022/11/11 19:06:02;;;;;;;116.20;34.45;;;;;;;;;;1655474;84;21821;-92
2022/11/11 19:08:29;;;;;;;117.53;35.17;;;;;;;;;;1732938;82;22122;-91
2022/11/11 19:10:56;;;;;;;111.83;34.98;;;;;;;;;;1734796;82;21547;-91
2022/11/11 19:13:21;;;;;;;112.17;34.65;;;;;;;;;;1714067;82;21062;-91
2022/11/11 19:15:47;;;;;;;109.70;34.30;;;;;;;;;;1734744;82;20979;-91
2022/11/11 19:18:13;;;;;;;101.33;32.85;;;;;;;;;;1734639;82;21073;-91
2022/11/11 19:20:38;;;;;;;99.35;33.13;;;;;;;;;;1734705;82;20960;-91
2022/11/11 19:23:04;;;;;;;108.47;35.20;;;;;;;;;;1731153;82;20833;-90
2022/11/11 19:25:35;;;;;;;146.47;43.13;;;;;;;;;;1734516;82;20873;-89
2022/11/11 19:28:01;;;;;;;132.45;39.95;;;;;;;;;;1647389;86;21077;-90
2022/11/11 19:30:26;;;;;;;141.68;41.88;;;;;;;;;;1647428;86;21089;-89
2022/11/11 19:32:52;;;;;;;145.87;43.98;;;;;;;;;;1647434;86;20892;-91